Time;durP1;ratioP1;P1;durP2;ratioP2;P2;SDS_P1;SDS_P2;PMS_P1;PMS_P2;Temp;Humidity;BMP_temperature;BMP_pressure;BME280_temperature;BME280_humidity;BME280_pressure;Samples;Min_cycle;Max_cycle;Signal;HPM_P1;HPM_P2
2022/03/27 00:01:19;;;;;;;13.90;8.50;;;;;;;;;;5049697;28;20028;-67
2022/03/27 00:03:45;;;;;;;15.32;9.93;;;;;;;;;;5047497;28;20057;-67
2022/03/27 00:06:11;;;;;;;16.83;10.57;;;;;;;;;;5047904;28;20111;-67
2022/03/27 00:08:37;;;;;;;15.23;9.90;;;;;;;;;;5044409;28;20021;-67
2022/03/27 00:13:48;;;;;;;14.90;8.55;;;;;;;;;;5041655;28;20092;-68
2022/03/27 00:16:14;;;;;;;16.10;9.45;;;;;;;;;;5050016;28;20468;-67
2022/03/27 00:18:41;;;;;;;14.00;8.68;;;;;;;;;;5047513;28;20032;-68
2022/03/27 00:21:07;;;;;;;14.73;8.25;;;;;;;;;;5044507;28;20639;-67
2022/03/27 00:23:33;;;;;;;15.35;8.85;;;;;;;;;;5046064;28;20404;-67
2022/03/27 00:25:59;;;;;;;18.30;9.38;;;;;;;;;;5044814;28;20033;-67
2022/03/27 00:28:26;;;;;;;16.10;9.07;;;;;;;;;;5047537;28;20469;-68
2022/03/27 00:30:52;;;;;;;14.38;8.18;;;;;;;;;;5049469;28;20076;-67
2022/03/27 00:33:18;;;;;;;15.57;8.63;;;;;;;;;;5044279;28;20040;-67
2022/03/27 00:35:45;;;;;;;13.90;8.57;;;;;;;;;;5044773;28;20033;-67
2022/03/27 00:38:11;;;;;;;16.08;8.52;;;;;;;;;;5044399;28;20025;-67
2022/03/27 00:40:37;;;;;;;12.18;7.60;;;;;;;;;;5044823;28;20389;-68
2022/03/27 00:43:04;;;;;;;12.55;7.95;;;;;;;;;;5051476;28;20021;-68
2022/03/27 00:45:30;;;;;;;13.75;8.30;;;;;;;;;;5044344;28;20102;-68
2022/03/27 00:47:56;;;;;;;14.82;8.40;;;;;;;;;;5044152;28;20047;-69
2022/03/27 00:50:22;;;;;;;14.85;8.13;;;;;;;;;;5044318;28;20033;-67
2022/03/27 00:52:48;;;;;;;15.35;9.18;;;;;;;;;;5043384;28;20022;-68
2022/03/27 00:55:14;;;;;;;13.75;8.02;;;;;;;;;;5049542;28;20060;-67
2022/03/27 00:57:40;;;;;;;13.23;8.07;;;;;;;;;;5046592;28;20029;-67
2022/03/27 01:00:09;;;;;;;14.57;8.57;;;;;;;;;;5044047;28;20025;-68
2022/03/27 01:02:36;;;;;;;14.02;7.97;;;;;;;;;;5045690;28;20028;-67
2022/03/27 01:05:08;;;;;;;16.17;8.63;;;;;;;;;;5044044;28;20025;-67
2022/03/27 01:07:34;;;;;;;15.93;8.45;;;;;;;;;;5045824;28;20033;-68
2022/03/27 01:10:00;;;;;;;14.95;8.50;;;;;;;;;;5041187;28;20472;-68
2022/03/27 01:12:29;;;;;;;15.27;8.02;;;;;;;;;;5044831;28;20025;-67
2022/03/27 01:14:54;;;;;;;14.82;8.35;;;;;;;;;;5045194;28;20036;-67
2022/03/27 01:17:22;;;;;;;14.63;8.32;;;;;;;;;;5044064;28;20029;-66
2022/03/27 01:19:52;;;;;;;13.35;8.02;;;;;;;;;;5043735;28;20397;-67
2022/03/27 01:22:19;;;;;;;14.18;8.75;;;;;;;;;;5048505;28;20021;-67
2022/03/27 01:24:45;;;;;;;14.30;8.50;;;;;;;;;;5046283;28;20029;-67
2022/03/27 01:27:12;;;;;;;14.65;8.05;;;;;;;;;;5043678;28;20033;-67
2022/03/27 01:29:38;;;;;;;12.98;7.88;;;;;;;;;;5043421;28;20032;-67
2022/03/27 01:32:05;;;;;;;11.93;7.60;;;;;;;;;;5046526;28;20096;-67
2022/03/27 01:34:31;;;;;;;14.23;8.18;;;;;;;;;;5045231;28;20379;-67
2022/03/27 01:37:01;;;;;;;13.93;7.95;;;;;;;;;;5049752;28;20025;-66
2022/03/27 01:39:27;;;;;;;12.98;7.55;;;;;;;;;;5042850;28;20059;-67
2022/03/27 01:41:53;;;;;;;14.48;8.20;;;;;;;;;;5043244;28;20442;-67
2022/03/27 01:44:20;;;;;;;13.30;7.78;;;;;;;;;;5043214;28;20025;-67
2022/03/27 01:46:47;;;;;;;14.53;7.50;;;;;;;;;;5043377;28;20109;-67
2022/03/27 01:49:13;;;;;;;15.55;8.25;;;;;;;;;;5049031;28;20021;-67
2022/03/27 01:51:40;;;;;;;13.27;7.50;;;;;;;;;;5046760;28;20048;-67
2022/03/27 01:54:07;;;;;;;14.10;7.78;;;;;;;;;;5042561;28;20124;-67
2022/03/27 01:56:33;;;;;;;11.27;7.43;;;;;;;;;;5043312;28;20495;-66
2022/03/27 01:58:59;;;;;;;11.65;7.20;;;;;;;;;;5043204;28;20029;-67
2022/03/27 02:01:25;;;;;;;14.55;8.07;;;;;;;;;;5046819;28;20021;-67
2022/03/27 02:03:54;;;;;;;13.05;7.80;;;;;;;;;;5047746;28;20365;-67
2022/03/27 02:06:20;;;;;;;13.18;7.68;;;;;;;;;;5042116;28;20033;-67
2022/03/27 02:08:47;;;;;;;13.00;7.65;;;;;;;;;;5041527;28;20025;-67
2022/03/27 02:11:14;;;;;;;12.95;7.57;;;;;;;;;;5043057;28;20396;-67
2022/03/27 02:13:40;;;;;;;14.32;7.15;;;;;;;;;;5042921;28;20028;-67
2022/03/27 02:16:06;;;;;;;13.52;7.53;;;;;;;;;;5050982;28;20032;-67
2022/03/27 02:18:32;;;;;;;13.15;8.10;;;;;;;;;;5042686;28;20055;-67
2022/03/27 02:21:00;;;;;;;15.70;7.13;;;;;;;;;;5042924;28;20021;-67
2022/03/27 02:23:26;;;;;;;12.13;7.15;;;;;;;;;;5043653;28;20079;-67
2022/03/27 02:25:53;;;;;;;12.02;7.38;;;;;;;;;;5042395;28;20033;-67
2022/03/27 02:28:19;;;;;;;11.45;7.35;;;;;;;;;;5046963;28;20017;-67
2022/03/27 02:30:45;;;;;;;14.43;7.03;;;;;;;;;;5045788;28;20045;-67
2022/03/27 02:33:12;;;;;;;12.82;7.90;;;;;;;;;;5042838;28;20036;-67
2022/03/27 02:35:38;;;;;;;14.10;7.75;;;;;;;;;;5042583;28;20048;-67
2022/03/27 02:38:05;;;;;;;15.40;7.63;;;;;;;;;;5042389;28;20068;-67
2022/03/27 02:40:35;;;;;;;15.70;8.10;;;;;;;;;;5044036;28;20069;-67
2022/03/27 02:43:01;;;;;;;16.13;7.85;;;;;;;;;;5050171;28;20017;-67
2022/03/27 02:45:28;;;;;;;13.60;7.97;;;;;;;;;;5044088;28;20025;-66
2022/03/27 02:47:54;;;;;;;14.75;7.18;;;;;;;;;;5042811;28;20392;-67
2022/03/27 02:50:21;;;;;;;12.50;7.95;;;;;;;;;;5042801;28;20029;-67
2022/03/27 02:52:47;;;;;;;12.25;7.78;;;;;;;;;;5042145;28;20022;-67
2022/03/27 02:55:13;;;;;;;12.05;7.75;;;;;;;;;;5048314;28;20045;-67
2022/03/27 02:57:39;;;;;;;13.65;7.10;;;;;;;;;;5045855;28;20036;-67
2022/03/27 03:00:06;;;;;;;14.38;7.95;;;;;;;;;;5042520;28;20036;-67
2022/03/27 03:02:33;;;;;;;12.52;7.60;;;;;;;;;;5044227;28;20025;-67
2022/03/27 03:04:59;;;;;;;16.20;7.95;;;;;;;;;;5041884;28;20033;-66
2022/03/27 03:07:25;;;;;;;13.40;7.07;;;;;;;;;;5044483;28;20025;-67
2022/03/27 03:09:51;;;;;;;15.93;8.32;;;;;;;;;;5046195;28;20025;-67
2022/03/27 03:12:17;;;;;;;13.70;7.80;;;;;;;;;;5042398;28;20021;-67
2022/03/27 03:14:44;;;;;;;15.32;7.85;;;;;;;;;;5041764;28;20039;-67
2022/03/27 03:17:10;;;;;;;12.88;7.30;;;;;;;;;;5044856;28;20029;-67
2022/03/27 03:19:36;;;;;;;14.13;7.90;;;;;;;;;;5046614;28;20465;-67
2022/03/27 03:22:02;;;;;;;13.50;7.50;;;;;;;;;;5053241;28;20024;-67
2022/03/27 03:24:28;;;;;;;12.80;7.80;;;;;;;;;;5045933;28;20021;-67
2022/03/27 03:26:55;;;;;;;13.15;8.30;;;;;;;;;;5047376;28;20105;-67
2022/03/27 03:29:22;;;;;;;13.35;7.50;;;;;;;;;;5045639;28;20017;-67
2022/03/27 03:31:48;;;;;;;15.07;7.97;;;;;;;;;;5045595;28;20041;-67
2022/03/27 03:34:14;;;;;;;15.32;7.60;;;;;;;;;;5051156;28;20047;-67
2022/03/27 03:36:41;;;;;;;13.32;7.28;;;;;;;;;;5047816;28;20524;-67
2022/03/27 03:39:07;;;;;;;12.45;7.22;;;;;;;;;;5045614;28;20021;-66
2022/03/27 03:41:33;;;;;;;10.68;7.00;;;;;;;;;;5045322;28;20025;-67
2022/03/27 03:43:59;;;;;;;13.38;7.30;;;;;;;;;;5045518;28;20032;-67
2022/03/27 03:46:25;;;;;;;14.13;8.20;;;;;;;;;;5048983;28;20032;-67
2022/03/27 03:48:51;;;;;;;14.32;7.22;;;;;;;;;;5050275;28;20376;-67
2022/03/27 03:51:17;;;;;;;15.88;7.80;;;;;;;;;;5044942;28;20025;-67
2022/03/27 03:53:43;;;;;;;16.38;8.25;;;;;;;;;;5045091;28;20021;-66
2022/03/27 03:56:11;;;;;;;13.80;7.45;;;;;;;;;;5045163;28;20047;-67
2022/03/27 03:58:37;;;;;;;12.02;7.35;;;;;;;;;;5045650;28;20017;-67
2022/03/27 04:01:03;;;;;;;14.18;8.05;;;;;;;;;;5052888;28;20029;-67
2022/03/27 04:03:29;;;;;;;12.82;7.15;;;;;;;;;;5047027;28;20025;-67
2022/03/27 04:05:55;;;;;;;12.60;7.38;;;;;;;;;;5044758;28;20039;-67
2022/03/27 04:08:21;;;;;;;13.13;7.30;;;;;;;;;;5044056;28;20025;-67
2022/03/27 04:10:47;;;;;;;13.98;7.65;;;;;;;;;;5045327;28;20374;-67
2022/03/27 04:13:13;;;;;;;14.80;8.02;;;;;;;;;;5050387;28;20033;-67
2022/03/27 04:15:40;;;;;;;12.18;7.75;;;;;;;;;;5046644;28;20063;-67
2022/03/27 04:18:06;;;;;;;13.43;7.72;;;;;;;;;;5044552;28;20468;-67
2022/03/27 04:20:32;;;;;;;15.77;7.80;;;;;;;;;;5044763;28;20037;-67
2022/03/27 04:22:58;;;;;;;14.00;7.40;;;;;;;;;;5044998;28;20033;-67
2022/03/27 04:25:24;;;;;;;10.75;6.90;;;;;;;;;;5048164;28;20047;-67
2022/03/27 04:27:51;;;;;;;13.18;7.85;;;;;;;;;;5048094;28;20097;-66
2022/03/27 04:30:17;;;;;;;15.18;7.53;;;;;;;;;;5044756;28;20036;-66
2022/03/27 04:32:43;;;;;;;12.95;7.03;;;;;;;;;;5044944;28;20029;-67
2022/03/27 04:35:10;;;;;;;13.00;7.10;;;;;;;;;;5043711;28;20045;-67
2022/03/27 04:37:43;;;;;;;11.13;7.30;;;;;;;;;;5013554;28;20055;-66
2022/03/27 04:40:10;;;;;;;11.18;6.95;;;;;;;;;;5044771;28;20024;-67
2022/03/27 04:42:36;;;;;;;11.98;7.18;;;;;;;;;;5045748;28;20070;-67
2022/03/27 04:45:03;;;;;;;13.00;7.55;;;;;;;;;;5044175;28;20036;-67
2022/03/27 04:47:29;;;;;;;13.82;7.20;;;;;;;;;;5044494;28;20029;-67
2022/03/27 04:49:55;;;;;;;11.52;7.75;;;;;;;;;;5043998;28;20030;-67
2022/03/27 04:52:21;;;;;;;16.23;8.23;;;;;;;;;;5047621;28;20025;-68
2022/03/27 04:54:47;;;;;;;12.13;7.32;;;;;;;;;;5047679;28;20037;-67
2022/03/27 04:57:13;;;;;;;13.52;7.40;;;;;;;;;;5045409;28;20025;-68
2022/03/27 04:59:39;;;;;;;11.10;7.22;;;;;;;;;;5044278;28;20047;-67
2022/03/27 05:02:05;;;;;;;14.15;8.27;;;;;;;;;;5044002;28;20494;-67
2022/03/27 05:04:31;;;;;;;11.73;6.95;;;;;;;;;;5045676;28;20026;-67
2022/03/27 05:06:57;;;;;;;11.13;6.70;;;;;;;;;;5050112;28;20063;-67
2022/03/27 05:09:23;;;;;;;11.68;6.95;;;;;;;;;;5045260;28;20033;-68
2022/03/27 05:11:50;;;;;;;12.65;6.68;;;;;;;;;;5043894;28;20025;-68
2022/03/27 05:14:16;;;;;;;16.35;7.63;;;;;;;;;;5043031;28;20496;-68
2022/03/27 05:16:42;;;;;;;14.73;7.95;;;;;;;;;;5044521;28;20069;-68
2022/03/27 05:19:08;;;;;;;13.05;7.68;;;;;;;;;;5051164;28;20465;-68
2022/03/27 05:21:34;;;;;;;11.43;7.05;;;;;;;;;;5044410;28;20056;-67
2022/03/27 05:24:01;;;;;;;13.40;7.53;;;;;;;;;;5045037;28;20112;-68
2022/03/27 05:26:27;;;;;;;19.00;9.93;;;;;;;;;;5046481;28;20101;-68
2022/03/27 05:28:53;;;;;;;18.70;10.15;;;;;;;;;;5043157;28;20366;-67
2022/03/27 05:31:20;;;;;;;16.23;8.75;;;;;;;;;;5048151;28;20389;-68
2022/03/27 05:33:46;;;;;;;16.23;8.30;;;;;;;;;;5046481;28;20039;-67
2022/03/27 05:36:12;;;;;;;17.17;7.95;;;;;;;;;;5043074;28;20029;-66
2022/03/27 05:38:38;;;;;;;14.88;7.82;;;;;;;;;;5042615;28;20025;-67
2022/03/27 05:41:05;;;;;;;18.15;9.23;;;;;;;;;;5043299;28;20009;-67
2022/03/27 05:43:31;;;;;;;17.08;9.52;;;;;;;;;;5045736;28;20169;-67
2022/03/27 05:45:57;;;;;;;16.20;8.80;;;;;;;;;;5053368;28;20108;-67
2022/03/27 05:48:23;;;;;;;15.32;8.38;;;;;;;;;;5043060;28;20036;-67
2022/03/27 05:50:49;;;;;;;11.27;6.80;;;;;;;;;;5043477;28;20032;-66
2022/03/27 05:53:15;;;;;;;12.57;6.40;;;;;;;;;;5043225;28;20042;-67
2022/03/27 05:55:42;;;;;;;12.68;6.43;;;;;;;;;;5042739;28;20060;-66
2022/03/27 05:58:08;;;;;;;16.42;7.90;;;;;;;;;;5050503;28;20024;-66
2022/03/27 06:00:34;;;;;;;16.58;8.77;;;;;;;;;;5045012;28;20033;-67
2022/03/27 06:03:00;;;;;;;16.08;9.07;;;;;;;;;;5043203;28;20116;-67
2022/03/27 06:05:26;;;;;;;41.00;16.77;;;;;;;;;;5039813;28;20044;-67
2022/03/27 06:07:56;;;;;;;22.80;10.38;;;;;;;;;;5027048;28;20034;-67
2022/03/27 06:10:27;;;;;;;19.23;8.40;;;;;;;;;;5041832;28;20049;-68
2022/03/27 06:12:53;;;;;;;18.33;9.35;;;;;;;;;;5044237;28;20048;-66
2022/03/27 06:15:20;;;;;;;16.02;8.88;;;;;;;;;;5038877;28;20552;-66
2022/03/27 06:17:48;;;;;;;16.70;8.68;;;;;;;;;;5036001;28;20112;-66
2022/03/27 06:20:19;;;;;;;15.00;8.07;;;;;;;;;;5034818;28;20043;-66
2022/03/27 06:22:45;;;;;;;14.27;8.50;;;;;;;;;;5038531;28;20026;-66
2022/03/27 06:25:13;;;;;;;14.48;8.57;;;;;;;;;;5031277;28;20108;-66
2022/03/27 06:27:39;;;;;;;15.27;8.23;;;;;;;;;;5046975;28;20129;-66
2022/03/27 06:30:06;;;;;;;16.65;9.52;;;;;;;;;;5038906;28;20099;-67
2022/03/27 06:32:32;;;;;;;16.90;9.30;;;;;;;;;;5043930;28;20064;-68
2022/03/27 06:34:58;;;;;;;16.23;9.32;;;;;;;;;;5042788;28;20045;-66
2022/03/27 06:37:26;;;;;;;12.57;7.28;;;;;;;;;;5046415;28;20029;-69
2022/03/27 06:39:52;;;;;;;13.85;6.95;;;;;;;;;;5048283;28;20033;-64
2022/03/27 06:42:18;;;;;;;14.57;7.65;;;;;;;;;;5039849;28;20032;-66
2022/03/27 06:44:44;;;;;;;14.93;8.45;;;;;;;;;;5042421;28;20538;-67
2022/03/27 06:47:10;;;;;;;19.30;9.80;;;;;;;;;;5042291;28;20037;-67
2022/03/27 06:49:36;;;;;;;17.90;10.40;;;;;;;;;;5010893;28;20604;-66
2022/03/27 06:52:02;;;;;;;16.23;9.30;;;;;;;;;;5051737;28;20029;-66
2022/03/27 06:54:31;;;;;;;17.75;10.55;;;;;;;;;;5044782;28;20040;-67
2022/03/27 06:56:57;;;;;;;21.35;11.52;;;;;;;;;;5046342;28;20040;-67
2022/03/27 06:59:23;;;;;;;14.25;9.13;;;;;;;;;;5044785;28;20161;-67
2022/03/27 07:04:34;;;;;;;13.98;7.97;;;;;;;;;;5045559;28;20048;-66
2022/03/27 07:07:00;;;;;;;13.85;9.18;;;;;;;;;;5052164;28;20020;-67
2022/03/27 07:09:26;;;;;;;13.70;9.38;;;;;;;;;;5044280;28;20370;-66
2022/03/27 07:11:52;;;;;;;15.45;8.77;;;;;;;;;;5045956;28;20029;-67
2022/03/27 07:14:19;;;;;;;13.80;8.80;;;;;;;;;;5048905;28;20033;-67
2022/03/27 07:16:45;;;;;;;13.60;8.90;;;;;;;;;;5045769;28;20401;-67
2022/03/27 07:19:11;;;;;;;14.25;8.48;;;;;;;;;;5052576;28;20025;-66
2022/03/27 07:21:41;;;;;;;12.82;8.80;;;;;;;;;;5046850;28;20459;-67
2022/03/27 07:24:07;;;;;;;13.05;9.32;;;;;;;;;;5044985;28;20029;-66
2022/03/27 07:26:35;;;;;;;12.20;8.82;;;;;;;;;;5047375;28;20112;-66
2022/03/27 07:29:02;;;;;;;12.23;9.32;;;;;;;;;;5046888;28;20025;-66
2022/03/27 07:31:28;;;;;;;12.55;9.18;;;;;;;;;;5048402;28;20053;-66
2022/03/27 07:33:55;;;;;;;15.02;10.02;;;;;;;;;;5051363;28;20047;-66
2022/03/27 07:36:21;;;;;;;12.05;9.18;;;;;;;;;;5044863;28;20047;-66
2022/03/27 07:38:47;;;;;;;14.60;9.63;;;;;;;;;;5045563;28;20048;-67
2022/03/27 07:41:13;;;;;;;14.50;9.60;;;;;;;;;;5045478;28;20056;-67
2022/03/27 07:43:39;;;;;;;12.65;9.48;;;;;;;;;;5045328;28;20096;-67
2022/03/27 07:46:05;;;;;;;13.00;9.75;;;;;;;;;;5053512;28;20029;-68
2022/03/27 07:48:31;;;;;;;13.25;9.25;;;;;;;;;;5044881;28;20124;-67
2022/03/27 07:50:57;;;;;;;17.48;9.70;;;;;;;;;;5046420;28;20025;-67
2022/03/27 07:53:23;;;;;;;15.55;9.60;;;;;;;;;;5045445;28;20025;-66
2022/03/27 07:55:49;;;;;;;14.55;9.57;;;;;;;;;;5044865;28;20374;-66
2022/03/27 07:58:15;;;;;;;13.80;9.80;;;;;;;;;;5050501;28;20438;-67
2022/03/27 08:00:41;;;;;;;14.23;10.32;;;;;;;;;;5052484;28;20564;-67
2022/03/27 08:03:08;;;;;;;13.52;9.48;;;;;;;;;;5041913;28;20100;-67
2022/03/27 08:05:34;;;;;;;13.50;9.83;;;;;;;;;;5046941;28;20027;-67
2022/03/27 08:08:00;;;;;;;14.27;10.30;;;;;;;;;;5044858;28;20456;-67
2022/03/27 08:10:26;;;;;;;13.25;10.13;;;;;;;;;;5045680;28;20116;-67
2022/03/27 08:12:53;;;;;;;15.35;10.65;;;;;;;;;;5049417;28;20029;-67
2022/03/27 08:15:20;;;;;;;14.98;10.85;;;;;;;;;;5044925;28;20044;-67
2022/03/27 08:17:46;;;;;;;13.77;9.43;;;;;;;;;;5044868;28;20021;-67
2022/03/27 08:20:12;;;;;;;16.00;10.60;;;;;;;;;;5044152;28;20119;-67
2022/03/27 08:22:38;;;;;;;13.55;10.18;;;;;;;;;;5045168;28;20032;-67
2022/03/27 08:25:04;;;;;;;14.90;10.23;;;;;;;;;;5053155;28;20029;-67
2022/03/27 08:27:33;;;;;;;14.73;11.27;;;;;;;;;;5044447;28;20029;-67
2022/03/27 08:30:00;;;;;;;13.18;10.38;;;;;;;;;;5044539;28;20465;-66
2022/03/27 08:32:26;;;;;;;14.73;11.23;;;;;;;;;;5044139;28;20056;-67
2022/03/27 08:34:52;;;;;;;13.63;10.75;;;;;;;;;;5044357;28;20045;-67
2022/03/27 08:37:18;;;;;;;15.07;11.45;;;;;;;;;;5049822;28;20534;-66
2022/03/27 08:39:47;;;;;;;15.68;11.27;;;;;;;;;;5047114;28;20365;-67
2022/03/27 08:42:14;;;;;;;14.23;10.52;;;;;;;;;;5044228;28;20128;-68
2022/03/27 08:44:40;;;;;;;13.97;10.87;;;;;;;;;;5044287;28;20392;-67
2022/03/27 08:47:09;;;;;;;14.32;11.18;;;;;;;;;;5044568;28;20293;-67
2022/03/27 08:49:40;;;;;;;16.02;10.95;;;;;;;;;;5045140;28;20030;-67
2022/03/27 08:52:10;;;;;;;14.98;11.18;;;;;;;;;;5052536;28;20025;-67
2022/03/27 08:54:44;;;;;;;14.27;10.35;;;;;;;;;;5044702;28;20021;-67
2022/03/27 08:57:24;;;;;;;16.42;10.85;;;;;;;;;;5044153;28;20103;-67
2022/03/27 08:59:52;;;;;;;13.95;11.07;;;;;;;;;;5045772;28;20047;-67
2022/03/27 09:02:19;;;;;;;;;;;;;;;;;;5044933;28;20025;-67
2022/03/27 09:04:45;;;;;;;16.70;11.15;;;;;;;;;;5043854;28;19910;-67
2022/03/27 09:07:11;;;;;;;13.93;11.02;;;;;;;;;;5050395;28;20115;-67
2022/03/27 09:09:37;;;;;;;15.55;11.55;;;;;;;;;;5044070;28;20513;-66
2022/03/27 09:12:04;;;;;;;14.80;11.32;;;;;;;;;;5044058;28;20036;-66
2022/03/27 09:14:34;;;;;;;15.32;10.75;;;;;;;;;;5042635;28;20040;-66
2022/03/27 09:17:01;;;;;;;15.95;10.48;;;;;;;;;;5044169;28;20512;-66
2022/03/27 09:19:50;;;;;;;15.73;10.88;;;;;;;;;;5047183;28;20049;-67
2022/03/27 09:22:16;;;;;;;15.15;10.82;;;;;;;;;;5039773;28;20400;-67
2022/03/27 09:24:45;;;;;;;14.57;10.63;;;;;;;;;;5046157;28;20021;-67
2022/03/27 09:27:11;;;;;;;16.23;11.15;;;;;;;;;;5043246;28;20303;-66
2022/03/27 09:29:55;;;;;;;13.60;10.07;;;;;;;;;;5043643;28;20159;-66
2022/03/27 09:32:28;;;;;;;14.65;11.15;;;;;;;;;;5043016;28;20045;-66
2022/03/27 09:35:06;;;;;;;14.80;10.15;;;;;;;;;;5043545;28;20038;-66
2022/03/27 09:37:34;;;;;;;16.70;11.32;;;;;;;;;;5044790;28;20014;-67
2022/03/27 09:40:02;;;;;;;;;;;;;;;;;;5050831;28;20086;-67
2022/03/27 09:42:28;;;;;;;15.88;10.82;;;;;;;;;;5045192;28;19955;-66
2022/03/27 09:45:13;;;;;;;16.17;10.75;;;;;;;;;;5042791;28;20025;-67
2022/03/27 09:47:40;;;;;;;15.68;10.45;;;;;;;;;;5043241;28;20075;-66
2022/03/27 09:50:06;;;;;;;14.40;10.90;;;;;;;;;;5043387;28;20025;-67
2022/03/27 09:52:36;;;;;;;14.77;10.57;;;;;;;;;;5044880;28;20025;-66
2022/03/27 09:55:09;;;;;;;14.63;10.50;;;;;;;;;;5051351;28;20124;-66
2022/03/27 09:57:39;;;;;;;16.25;11.45;;;;;;;;;;5044146;28;20071;-67
2022/03/27 10:00:08;;;;;;;16.08;11.63;;;;;;;;;;5043093;28;20519;-66
2022/03/27 10:02:34;;;;;;;14.90;10.68;;;;;;;;;;5042931;28;20060;-67
2022/03/27 10:05:02;;;;;;;16.08;11.25;;;;;;;;;;5047278;28;20029;-67
2022/03/27 10:07:33;;;;;;;17.48;11.98;;;;;;;;;;5045949;28;20034;-66
2022/03/27 10:09:59;;;;;;;18.08;12.13;;;;;;;;;;5048639;28;20025;-66
2022/03/27 10:12:27;;;;;;;17.20;11.70;;;;;;;;;;5042308;28;20028;-66
2022/03/27 10:14:55;;;;;;;14.95;11.70;;;;;;;;;;5044290;28;20041;-66
2022/03/27 10:17:22;;;;;;;17.85;12.45;;;;;;;;;;5042721;28;20021;-67
2022/03/27 10:19:54;;;;;;;17.80;12.20;;;;;;;;;;5042750;28;20025;-68
2022/03/27 10:22:21;;;;;;;16.75;12.00;;;;;;;;;;5047132;28;20118;-66
2022/03/27 10:24:50;;;;;;;15.95;11.55;;;;;;;;;;5040968;28;20025;-67
2022/03/27 10:27:17;;;;;;;16.00;11.05;;;;;;;;;;5045527;28;20028;-67
2022/03/27 10:29:43;;;;;;;15.98;11.68;;;;;;;;;;5046648;28;20553;-66
2022/03/27 10:32:10;;;;;;;18.50;12.38;;;;;;;;;;5046781;28;20074;-67
2022/03/27 10:34:57;;;;;;;17.88;12.82;;;;;;;;;;5015967;28;20025;-67
2022/03/27 10:37:42;;;;;;;17.65;13.15;;;;;;;;;;5031018;28;20037;-67
2022/03/27 10:40:12;;;;;;;19.75;13.25;;;;;;;;;;5046498;28;20050;-68
2022/03/27 10:42:54;;;;;;;18.15;13.20;;;;;;;;;;5048149;28;20029;-67
2022/03/27 10:45:22;;;;;;;17.00;12.85;;;;;;;;;;5046833;28;20033;-67
2022/03/27 10:48:08;;;;;;;18.40;13.13;;;;;;;;;;5044231;28;20013;-66
2022/03/27 10:50:44;;;;;;;17.67;12.25;;;;;;;;;;5047495;28;20035;-67
2022/03/27 10:53:11;;;;;;;16.90;12.75;;;;;;;;;;5046617;28;20570;-66
2022/03/27 10:55:39;;;;;;;19.40;12.30;;;;;;;;;;5015039;28;20104;-66
2022/03/27 10:58:25;;;;;;;15.70;12.88;;;;;;;;;;5054457;28;20013;-67
2022/03/27 11:00:51;;;;;;;19.38;13.40;;;;;;;;;;5050626;28;20025;-66
2022/03/27 11:03:35;;;;;;;17.63;13.00;;;;;;;;;;5046402;28;20670;-66
2022/03/27 11:06:03;;;;;;;22.88;14.45;;;;;;;;;;5046271;28;20107;-66
2022/03/27 11:08:32;;;;;;;18.30;12.88;;;;;;;;;;5045179;28;20025;-66
2022/03/27 11:11:01;;;;;;;17.67;13.10;;;;;;;;;;5046337;28;20040;-66
2022/03/27 11:13:27;;;;;;;21.20;14.90;;;;;;;;;;5048245;28;20021;-66
2022/03/27 11:16:06;;;;;;;17.60;13.30;;;;;;;;;;5050640;28;20079;-66
2022/03/27 11:18:39;;;;;;;16.10;11.63;;;;;;;;;;5046059;28;20036;-66
2022/03/27 11:21:07;;;;;;;18.50;12.77;;;;;;;;;;5045916;28;20029;-66
2022/03/27 11:23:37;;;;;;;20.05;13.35;;;;;;;;;;5045838;28;20397;-66
2022/03/27 11:26:05;;;;;;;19.17;14.02;;;;;;;;;;5045434;28;20036;-68
2022/03/27 11:28:44;;;;;;;20.45;13.27;;;;;;;;;;5048321;28;20041;-66
2022/03/27 11:31:10;;;;;;;19.85;13.05;;;;;;;;;;5045714;28;20124;-67
2022/03/27 11:33:37;;;;;;;19.65;13.63;;;;;;;;;;5046911;28;20029;-67
2022/03/27 11:36:10;;;;;;;18.63;13.95;;;;;;;;;;5047006;28;20068;-67
2022/03/27 11:38:36;;;;;;;18.27;13.40;;;;;;;;;;5045281;28;20056;-67
2022/03/27 11:41:21;;;;;;;17.85;13.30;;;;;;;;;;5048607;28;20059;-67
2022/03/27 11:43:47;;;;;;;21.08;13.52;;;;;;;;;;5016683;28;20380;-67
2022/03/27 11:46:21;;;;;;;19.50;13.68;;;;;;;;;;5051754;28;20108;-67
2022/03/27 11:48:58;;;;;;;19.60;13.45;;;;;;;;;;5049385;28;20174;-67
2022/03/27 11:51:24;;;;;;;21.48;15.02;;;;;;;;;;5045412;28;20013;-67
2022/03/27 11:53:51;;;;;;;20.00;14.30;;;;;;;;;;5045219;28;20025;-67
2022/03/27 11:56:17;;;;;;;19.30;14.23;;;;;;;;;;5044938;28;20059;-67
2022/03/27 11:58:43;;;;;;;22.27;14.00;;;;;;;;;;5045523;28;20026;-67
2022/03/27 12:01:10;;;;;;;20.08;14.52;;;;;;;;;;5052335;28;20190;-67
2022/03/27 12:03:39;;;;;;;24.50;14.25;;;;;;;;;;5045922;28;20025;-67
2022/03/27 12:06:09;;;;;;;22.00;14.77;;;;;;;;;;5046272;28;20112;-67
2022/03/27 12:08:39;;;;;;;20.00;14.65;;;;;;;;;;5043875;28;20075;-67
2022/03/27 12:11:06;;;;;;;23.77;15.95;;;;;;;;;;5045155;28;20431;-67
2022/03/27 12:13:39;;;;;;;19.50;14.82;;;;;;;;;;5047471;28;20030;-67
2022/03/27 12:16:06;;;;;;;20.13;15.43;;;;;;;;;;5044624;28;20091;-66
2022/03/27 12:18:36;;;;;;;20.15;15.30;;;;;;;;;;5044461;28;20064;-67
2022/03/27 12:21:03;;;;;;;20.70;15.50;;;;;;;;;;5044568;28;20025;-67
2022/03/27 12:23:37;;;;;;;21.42;15.27;;;;;;;;;;5044629;28;20051;-68
2022/03/27 12:29:39;;;;;;;19.40;15.15;;;;;;;;;;5044790;28;20025;-67
2022/03/27 12:31:36;;;;;;;21.42;15.68;;;;;;;;;;5013161;28;20060;-67
2022/03/27 12:34:03;;;;;;;20.35;14.35;;;;;;;;;;5051718;28;20028;-67
2022/03/27 12:36:29;;;;;;;22.30;16.00;;;;;;;;;;5044600;28;20039;-67
2022/03/27 12:38:55;;;;;;;20.55;15.77;;;;;;;;;;5043122;28;20100;-67
2022/03/27 12:41:39;;;;;;;21.15;13.95;;;;;;;;;;5044593;28;20025;-67
2022/03/27 12:44:05;;;;;;;21.60;14.90;;;;;;;;;;5043938;28;20021;-67
2022/03/27 12:46:31;;;;;;;16.38;12.68;;;;;;;;;;5045842;28;20038;-67
2022/03/27 12:49:02;;;;;;;22.00;17.17;;;;;;;;;;5049841;28;20025;-67
2022/03/27 12:51:28;;;;;;;20.73;15.98;;;;;;;;;;5045990;28;20024;-67
2022/03/27 12:54:02;;;;;;;18.13;12.30;;;;;;;;;;5044018;28;20507;-67
2022/03/27 12:56:28;;;;;;;17.92;13.80;;;;;;;;;;5043373;28;20067;-67
2022/03/27 12:58:55;;;;;;;20.98;15.45;;;;;;;;;;5044346;28;20025;-67
2022/03/27 13:01:25;;;;;;;24.08;16.70;;;;;;;;;;5048538;28;20021;-66
2022/03/27 13:04:08;;;;;;;20.08;16.23;;;;;;;;;;5048424;28;20095;-67
2022/03/27 13:06:38;;;;;;;19.50;13.95;;;;;;;;;;5051726;28;20029;-66
2022/03/27 13:09:05;;;;;;;22.45;15.48;;;;;;;;;;5042933;28;20096;-66
2022/03/27 13:11:38;;;;;;;20.52;14.07;;;;;;;;;;5043516;28;20033;-67
2022/03/27 13:14:05;;;;;;;21.13;16.05;;;;;;;;;;5043713;28;20033;-67
2022/03/27 13:16:32;;;;;;;24.25;16.00;;;;;;;;;;5046356;28;20107;-66
2022/03/27 13:19:03;;;;;;;19.38;14.40;;;;;;;;;;5050639;28;20017;-66
2022/03/27 13:21:33;;;;;;;20.83;15.57;;;;;;;;;;5045704;28;20021;-66
2022/03/27 13:24:00;;;;;;;21.33;15.32;;;;;;;;;;5043656;28;20025;-66
2022/03/27 13:26:26;;;;;;;22.10;16.83;;;;;;;;;;5043478;28;20452;-67
2022/03/27 13:28:52;;;;;;;22.02;14.50;;;;;;;;;;5043995;28;20053;-67
2022/03/27 13:31:19;;;;;;;18.80;13.95;;;;;;;;;;5040673;28;20041;-67
2022/03/27 13:33:45;;;;;;;18.63;13.98;;;;;;;;;;5046093;28;20040;-66
2022/03/27 13:36:13;;;;;;;22.85;16.30;;;;;;;;;;5043532;28;20053;-66
2022/03/27 13:38:39;;;;;;;21.73;16.42;;;;;;;;;;5043562;28;20020;-66
2022/03/27 13:43:50;;;;;;;20.58;14.85;;;;;;;;;;5015582;28;20135;-67
2022/03/27 13:46:17;;;;;;;22.05;16.15;;;;;;;;;;5048520;28;20029;-67
2022/03/27 13:48:43;;;;;;;23.25;16.42;;;;;;;;;;5046174;28;20047;-66
2022/03/27 13:51:09;;;;;;;20.65;14.75;;;;;;;;;;5043463;28;20430;-66
2022/03/27 13:53:35;;;;;;;24.55;16.75;;;;;;;;;;5043405;28;20100;-67
2022/03/27 13:56:01;;;;;;;23.30;16.13;;;;;;;;;;5042442;28;20127;-67
2022/03/27 13:58:27;;;;;;;23.45;14.18;;;;;;;;;;5045159;28;20388;-67
2022/03/27 14:00:53;;;;;;;24.38;16.05;;;;;;;;;;5047721;28;20021;-67
2022/03/27 14:03:21;;;;;;;21.67;15.02;;;;;;;;;;5042902;28;20167;-67
2022/03/27 14:05:47;;;;;;;19.20;13.25;;;;;;;;;;5042993;28;20456;-67
2022/03/27 14:08:13;;;;;;;21.75;15.85;;;;;;;;;;5041594;28;20108;-67
2022/03/27 14:10:40;;;;;;;27.40;16.85;;;;;;;;;;5043356;28;20056;-67
2022/03/27 14:13:06;;;;;;;21.57;15.03;;;;;;;;;;5050720;28;20049;-67
2022/03/27 14:15:32;;;;;;;23.20;16.80;;;;;;;;;;5042629;28;20041;-66
2022/03/27 14:17:59;;;;;;;23.02;16.48;;;;;;;;;;5042589;28;20021;-67
2022/03/27 14:20:25;;;;;;;21.17;15.30;;;;;;;;;;5044440;28;20038;-67
2022/03/27 14:22:52;;;;;;;22.35;15.50;;;;;;;;;;5042991;28;20036;-67
2022/03/27 14:25:17;;;;;;;22.73;16.33;;;;;;;;;;5041604;28;20465;-66
2022/03/27 14:27:46;;;;;;;22.42;16.08;;;;;;;;;;5045081;28;20025;-66
2022/03/27 14:30:12;;;;;;;23.13;16.25;;;;;;;;;;5042467;28;20091;-67
2022/03/27 14:32:39;;;;;;;23.65;16.05;;;;;;;;;;5045521;28;20484;-66
2022/03/27 14:35:05;;;;;;;24.58;16.73;;;;;;;;;;5042754;28;20045;-67
2022/03/27 14:37:33;;;;;;;25.83;16.77;;;;;;;;;;5044599;28;20315;-67